sensor_id;sensor_type;location;lat;lon;timestamp;pressure;altitude;pressure_sealevel;temperature;humidity
57894;BME280;43710;47.460;19.034;2023-02-28T04:58:32;101666.63;;;5.06;50.64
57894;BME280;43710;47.460;19.034;2023-02-28T05:01:34;101666.63;;;5.06;50.64
57894;BME280;43710;47.460;19.034;2023-02-28T05:04:38;101663.87;;;4.81;81.60
57894;BME280;43710;47.460;19.034;2023-02-28T05:07:40;101665.13;;;4.71;56.11
57894;BME280;43710;47.460;19.034;2023-02-28T05:10:42;101663.47;;;4.84;50.72
57894;BME280;43710;47.460;19.034;2023-02-28T05:13:45;101664.34;;;4.64;57.71
57894;BME280;43710;47.460;19.034;2023-02-28T05:16:47;101667.59;;;4.60;48.62
57894;BME280;43710;47.460;19.034;2023-02-28T05:19:52;101665.41;;;5.02;68.12
57894;BME280;43710;47.460;19.034;2023-02-28T05:22:59;101670.75;;;4.95;53.83
57894;BME280;43710;47.460;19.034;2023-02-28T05:26:02;101675.50;;;4.80;52.32
57894;BME280;43710;47.460;19.034;2023-02-28T05:29:05;101682.31;;;4.62;47.29
57894;BME280;43710;47.460;19.034;2023-02-28T05:32:11;101672.69;;;4.68;48.13
57894;BME280;43710;47.460;19.034;2023-02-28T05:35:14;101675.34;;;4.68;46.40
57894;BME280;43710;47.460;19.034;2023-02-28T05:38:16;101688.22;;;4.78;69.93
57894;BME280;43710;47.460;19.034;2023-02-28T05:41:20;101686.66;;;5.08;53.16
57894;BME280;43710;47.460;19.034;2023-02-28T05:44:23;101678.25;;;5.11;75.80
57894;BME280;43710;47.460;19.034;2023-02-28T05:47:25;101681.72;;;5.50;70.31
57894;BME280;43710;47.460;19.034;2023-02-28T05:50:27;101675.38;;;5.13;61.79
57894;BME280;43710;47.460;19.034;2023-02-28T05:53:30;101681.37;;;5.02;48.90
57894;BME280;43710;47.460;19.034;2023-02-28T05:56:33;101691.59;;;4.98;50.11
57894;BME280;43710;47.460;19.034;2023-02-28T05:59:37;101694.41;;;4.45;47.82
57894;BME280;43710;47.460;19.034;2023-02-28T06:02:41;101699.75;;;4.32;48.52
57894;BME280;43710;47.460;19.034;2023-02-28T06:05:44;101693.00;;;3.96;48.98
57894;BME280;43710;47.460;19.034;2023-02-28T06:08:46;101696.06;;;3.66;49.53
57894;BME280;43710;47.460;19.034;2023-02-28T06:11:49;101695.25;;;3.72;49.52
57894;BME280;43710;47.460;19.034;2023-02-28T06:14:51;101695.66;;;4.03;50.27
57894;BME280;43710;47.460;19.034;2023-02-28T06:17:54;101706.28;;;4.22;49.86
57894;BME280;43710;47.460;19.034;2023-02-28T06:20:58;101709.53;;;4.51;58.67
57894;BME280;43710;47.460;19.034;2023-02-28T06:24:01;101698.47;;;4.67;67.78
57894;BME280;43710;47.460;19.034;2023-02-28T06:27:03;101710.72;;;5.27;69.36
57894;BME280;43710;47.460;19.034;2023-02-28T06:30:07;101709.09;;;5.19;54.96
57894;BME280;43710;47.460;19.034;2023-02-28T06:33:10;101709.19;;;4.92;49.61
57894;BME280;43710;47.460;19.034;2023-02-28T06:36:14;101712.19;;;4.51;48.54
57894;BME280;43710;47.460;19.034;2023-02-28T06:39:18;101716.69;;;4.37;49.00
57894;BME280;43710;47.460;19.034;2023-02-28T06:42:22;101726.03;;;4.60;53.32
57894;BME280;43710;47.460;19.034;2023-02-28T06:45:26;101727.47;;;5.27;77.11
57894;BME280;43710;47.460;19.034;2023-02-28T06:48:29;101733.44;;;5.86;74.12
57894;BME280;43710;47.460;19.034;2023-02-28T06:51:31;101729.34;;;5.90;58.32
57894;BME280;43710;47.460;19.034;2023-02-28T06:54:33;101722.81;;;6.18;84.04
57894;BME280;43710;47.460;19.034;2023-02-28T06:57:36;101723.31;;;6.08;66.84
57894;BME280;43710;47.460;19.034;2023-02-28T07:00:39;101724.81;;;6.22;63.78
57894;BME280;43710;47.460;19.034;2023-02-28T07:03:41;101724.09;;;5.83;52.92
57894;BME280;43710;47.460;19.034;2023-02-28T07:06:43;101725.91;;;5.51;51.05
57894;BME280;43710;47.460;19.034;2023-02-28T07:09:45;101737.00;;;5.41;49.96
57894;BME280;43710;47.460;19.034;2023-02-28T07:12:48;101742.41;;;5.67;50.23
57894;BME280;43710;47.460;19.034;2023-02-28T07:18:56;101740.44;;;5.49;54.42
57894;BME280;43710;47.460;19.034;2023-02-28T07:21:59;101750.34;;;5.35;47.37
57894;BME280;43710;47.460;19.034;2023-02-28T07:25:01;101750.97;;;6.07;88.00
57894;BME280;43710;47.460;19.034;2023-02-28T07:28:04;101746.03;;;6.10;72.98
57894;BME280;43710;47.460;19.034;2023-02-28T07:31:07;101748.06;;;5.77;46.11
57894;BME280;43710;47.460;19.034;2023-02-28T07:34:09;101748.91;;;5.32;46.34
57894;BME280;43710;47.460;19.034;2023-02-28T07:37:12;101750.09;;;5.43;47.82
57894;BME280;43710;47.460;19.034;2023-02-28T07:40:14;101754.69;;;5.16;47.32
57894;BME280;43710;47.460;19.034;2023-02-28T07:43:17;101755.19;;;4.93;47.82
57894;BME280;43710;47.460;19.034;2023-02-28T07:46:19;101757.91;;;4.66;47.17
57894;BME280;43710;47.460;19.034;2023-02-28T07:49:24;101760.38;;;4.48;47.61
57894;BME280;43710;47.460;19.034;2023-02-28T07:52:28;101760.00;;;4.38;49.50
57894;BME280;43710;47.460;19.034;2023-02-28T07:55:32;101761.53;;;4.85;59.88
57894;BME280;43710;47.460;19.034;2023-02-28T07:58:34;101756.91;;;4.54;47.72
57894;BME280;43710;47.460;19.034;2023-02-28T08:01:37;101755.87;;;4.55;48.20
57894;BME280;43710;47.460;19.034;2023-02-28T08:04:42;101759.31;;;4.69;47.44
57894;BME280;43710;47.460;19.034;2023-02-28T08:07:44;101758.50;;;4.75;51.55
57894;BME280;43710;47.460;19.034;2023-02-28T08:10:47;101749.94;;;4.60;45.77
57894;BME280;43710;47.460;19.034;2023-02-28T08:13:49;101748.53;;;4.57;45.51
57894;BME280;43710;47.460;19.034;2023-02-28T08:16:54;101755.53;;;5.10;64.49
57894;BME280;43710;47.460;19.034;2023-02-28T08:19:57;101754.16;;;5.46;65.61
57894;BME280;43710;47.460;19.034;2023-02-28T08:22:59;101757.06;;;5.44;46.87
57894;BME280;43710;47.460;19.034;2023-02-28T08:26:02;101761.16;;;5.78;53.07
57894;BME280;43710;47.460;19.034;2023-02-28T08:29:06;101754.78;;;5.48;44.45
57894;BME280;43710;47.460;19.034;2023-02-28T08:32:08;101760.06;;;5.03;45.13
57894;BME280;43710;47.460;19.034;2023-02-28T08:35:29;101754.38;;;4.86;45.79
57894;BME280;43710;47.460;19.034;2023-02-28T08:38:32;101752.00;;;5.23;51.64
57894;BME280;43710;47.460;19.034;2023-02-28T08:41:34;101763.44;;;5.75;47.64
57894;BME280;43710;47.460;19.034;2023-02-28T08:44:37;101749.22;;;5.49;48.87
57894;BME280;43710;47.460;19.034;2023-02-28T08:47:40;101742.25;;;5.93;82.03
57894;BME280;43710;47.460;19.034;2023-02-28T08:50:42;101741.09;;;6.39;79.50
57894;BME280;43710;47.460;19.034;2023-02-28T08:53:49;101747.78;;;6.42;50.34
57894;BME280;43710;47.460;19.034;2023-02-28T08:56:51;101746.25;;;6.34;65.28
57894;BME280;43710;47.460;19.034;2023-02-28T08:59:54;101744.25;;;6.73;62.53
57894;BME280;43710;47.460;19.034;2023-02-28T09:02:56;101744.81;;;6.56;64.23
57894;BME280;43710;47.460;19.034;2023-02-28T09:06:00;101748.06;;;6.95;80.75
57894;BME280;43710;47.460;19.034;2023-02-28T09:09:07;101746.59;;;6.81;57.32
57894;BME280;43710;47.460;19.034;2023-02-28T09:12:09;101749.78;;;6.90;50.24
57894;BME280;43710;47.460;19.034;2023-02-28T09:15:11;101748.28;;;7.30;77.13
57894;BME280;43710;47.460;19.034;2023-02-28T09:18:14;101747.91;;;7.27;52.16
57894;BME280;43710;47.460;19.034;2023-02-28T09:21:18;101749.13;;;7.13;76.34
57894;BME280;43710;47.460;19.034;2023-02-28T09:24:21;101741.78;;;7.26;69.93
57894;BME280;43710;47.460;19.034;2023-02-28T09:27:23;101746.31;;;7.26;52.19
57894;BME280;43710;47.460;19.034;2023-02-28T09:30:26;101752.16;;;7.16;44.95
57894;BME280;43710;47.460;19.034;2023-02-28T09:33:28;101755.25;;;6.95;76.85
57894;BME280;43710;47.460;19.034;2023-02-28T09:36:31;101755.63;;;7.17;61.83
57894;BME280;43710;47.460;19.034;2023-02-28T09:39:45;101750.94;;;7.30;60.56
57894;BME280;43710;47.460;19.034;2023-02-28T09:42:49;101750.56;;;7.45;48.20
57894;BME280;43710;47.460;19.034;2023-02-28T09:49:36;101760.34;;;7.93;81.48
57894;BME280;43710;47.460;19.034;2023-02-28T09:52:40;101748.66;;;7.34;42.60
57894;BME280;43710;47.460;19.034;2023-02-28T09:55:47;101754.41;;;7.49;52.98
57894;BME280;43710;47.460;19.034;2023-02-28T10:05:29;101742.31;;;6.98;44.98
57894;BME280;43710;47.460;19.034;2023-02-28T10:08:38;101747.78;;;7.22;48.17
57894;BME280;43710;47.460;19.034;2023-02-28T10:11:45;101740.38;;;7.24;60.06
57894;BME280;43710;47.460;19.034;2023-02-28T10:14:54;101733.03;;;7.19;46.10
57894;BME280;43710;47.460;19.034;2023-02-28T10:18:04;101734.91;;;7.49;53.67
57894;BME280;43710;47.460;19.034;2023-02-28T10:21:26;101736.00;;;7.60;47.96
57894;BME280;43710;47.460;19.034;2023-02-28T10:24:50;101735.47;;;7.81;55.08
57894;BME280;43710;47.460;19.034;2023-02-28T10:28:04;101728.47;;;7.38;45.00
57894;BME280;43710;47.460;19.034;2023-02-28T10:31:18;101733.72;;;6.96;71.66
57894;BME280;43710;47.460;19.034;2023-02-28T10:34:22;101736.56;;;7.32;54.99
57894;BME280;43710;47.460;19.034;2023-02-28T10:37:24;101721.37;;;7.62;49.71
57894;BME280;43710;47.460;19.034;2023-02-28T10:40:33;101718.81;;;7.25;59.49
57894;BME280;43710;47.460;19.034;2023-02-28T10:43:39;101719.09;;;7.36;44.83
57894;BME280;43710;47.460;19.034;2023-02-28T10:46:42;101717.50;;;7.46;54.22
57894;BME280;43710;47.460;19.034;2023-02-28T10:49:47;101717.84;;;7.80;58.39
57894;BME280;43710;47.460;19.034;2023-02-28T10:52:51;101714.13;;;7.81;66.19
57894;BME280;43710;47.460;19.034;2023-02-28T11:02:35;101705.88;;;7.83;48.91
57894;BME280;43710;47.460;19.034;2023-02-28T11:05:38;101706.06;;;7.27;43.96
57894;BME280;43710;47.460;19.034;2023-02-28T11:08:45;101707.47;;;7.30;45.75
57894;BME280;43710;47.460;19.034;2023-02-28T11:11:48;101704.47;;;7.38;43.29
57894;BME280;43710;47.460;19.034;2023-02-28T11:18:29;101703.12;;;7.89;50.36
57894;BME280;43710;47.460;19.034;2023-02-28T11:21:36;101705.75;;;7.77;47.94
57894;BME280;43710;47.460;19.034;2023-02-28T11:24:44;101698.94;;;7.93;49.85
57894;BME280;43710;47.460;19.034;2023-02-28T11:27:54;101696.38;;;7.87;43.52
57894;BME280;43710;47.460;19.034;2023-02-28T11:34:25;101691.97;;;8.28;53.18
57894;BME280;43710;47.460;19.034;2023-02-28T11:37:31;101684.91;;;8.10;66.44
57894;BME280;43710;47.460;19.034;2023-02-28T11:57:26;101682.03;;;7.27;43.86
57894;BME280;43710;47.460;19.034;2023-02-28T12:07:22;101671.78;;;7.96;60.87
57894;BME280;43710;47.460;19.034;2023-02-28T12:10:31;101655.19;;;8.06;50.72
57894;BME280;43710;47.460;19.034;2023-02-28T12:24:18;101651.44;;;7.84;44.20
57894;BME280;43710;47.460;19.034;2023-02-28T12:27:29;101649.91;;;7.64;51.90
57894;BME280;43710;47.460;19.034;2023-02-28T12:30:37;101644.50;;;8.41;59.94
57894;BME280;43710;47.460;19.034;2023-02-28T12:33:51;101639.72;;;8.32;48.83
57894;BME280;43710;47.460;19.034;2023-02-28T12:36:58;101642.75;;;8.23;46.58
57894;BME280;43710;47.460;19.034;2023-02-28T12:40:07;101631.94;;;8.07;56.94
57894;BME280;43710;47.460;19.034;2023-02-28T12:43:13;101632.75;;;8.31;45.43
57894;BME280;43710;47.460;19.034;2023-02-28T12:46:21;101635.06;;;8.51;52.46
57894;BME280;43710;47.460;19.034;2023-02-28T12:49:33;101639.59;;;8.62;58.45
57894;BME280;43710;47.460;19.034;2023-02-28T12:52:40;101623.72;;;8.08;52.10
57894;BME280;43710;47.460;19.034;2023-02-28T12:55:54;101626.84;;;8.40;54.56
57894;BME280;43710;47.460;19.034;2023-02-28T12:59:17;101624.84;;;8.36;46.94
57894;BME280;43710;47.460;19.034;2023-02-28T13:06:01;101620.47;;;8.41;46.08
57894;BME280;43710;47.460;19.034;2023-02-28T13:09:12;101618.34;;;8.32;54.40
57894;BME280;43710;47.460;19.034;2023-02-28T13:12:16;101615.16;;;8.70;58.31
57894;BME280;43710;47.460;19.034;2023-02-28T13:15:22;101606.59;;;8.56;48.79
57894;BME280;43710;47.460;19.034;2023-02-28T13:18:40;101609.06;;;8.46;50.66
57894;BME280;43710;47.460;19.034;2023-02-28T13:21:44;101604.00;;;8.73;64.51
57894;BME280;43710;47.460;19.034;2023-02-28T13:24:51;101602.22;;;8.38;43.98
57894;BME280;43710;47.460;19.034;2023-02-28T13:27:55;101604.84;;;8.62;52.88
57894;BME280;43710;47.460;19.034;2023-02-28T13:31:02;101608.16;;;8.81;57.46
57894;BME280;43710;47.460;19.034;2023-02-28T13:34:15;101604.66;;;8.40;48.98
57894;BME280;43710;47.460;19.034;2023-02-28T13:40:32;101597.03;;;8.72;56.89
57894;BME280;43710;47.460;19.034;2023-02-28T13:47:20;101593.22;;;8.68;48.05
57894;BME280;43710;47.460;19.034;2023-02-28T13:50:31;101589.84;;;8.89;55.20
57894;BME280;43710;47.460;19.034;2023-02-28T13:53:55;101580.09;;;9.12;64.81
57894;BME280;43710;47.460;19.034;2023-02-28T14:03:57;101583.31;;;8.97;60.40
57894;BME280;43710;47.460;19.034;2023-02-28T14:07:03;101574.31;;;9.03;56.27
57894;BME280;43710;47.460;19.034;2023-02-28T14:10:07;101578.03;;;8.85;49.61
57894;BME280;43710;47.460;19.034;2023-02-28T14:16:47;101568.13;;;8.86;53.44
57894;BME280;43710;47.460;19.034;2023-02-28T14:19:52;101566.66;;;9.24;52.73
57894;BME280;43710;47.460;19.034;2023-02-28T14:23:16;101577.97;;;8.97;46.62
57894;BME280;43710;47.460;19.034;2023-02-28T14:36:37;101557.09;;;8.54;48.50
57894;BME280;43710;47.460;19.034;2023-02-28T14:39:41;101554.72;;;8.69;46.33
57894;BME280;43710;47.460;19.034;2023-02-28T14:42:58;101561.97;;;8.85;75.95
57894;BME280;43710;47.460;19.034;2023-02-28T14:46:05;101553.50;;;9.05;56.40
57894;BME280;43710;47.460;19.034;2023-02-28T14:49:16;101565.59;;;8.79;47.53
57894;BME280;43710;47.460;19.034;2023-02-28T14:52:24;101561.09;;;8.39;46.06
57894;BME280;43710;47.460;19.034;2023-02-28T14:55:31;101557.94;;;8.42;59.04
57894;BME280;43710;47.460;19.034;2023-02-28T14:58:34;101559.25;;;8.68;49.08
57894;BME280;43710;47.460;19.034;2023-02-28T15:01:36;101565.31;;;8.64;47.03
57894;BME280;43710;47.460;19.034;2023-02-28T15:04:39;101566.63;;;8.50;48.44
57894;BME280;43710;47.460;19.034;2023-02-28T15:07:44;101564.75;;;8.62;46.38
57894;BME280;43710;47.460;19.034;2023-02-28T15:11:07;101574.22;;;8.81;63.89
57894;BME280;43710;47.460;19.034;2023-02-28T15:14:19;101572.56;;;9.09;71.43
57894;BME280;43710;47.460;19.034;2023-02-28T15:17:23;101572.97;;;9.01;56.86
57894;BME280;43710;47.460;19.034;2023-02-28T15:20:26;101575.34;;;8.85;48.20
57894;BME280;43710;47.460;19.034;2023-02-28T15:23:29;101575.28;;;8.97;58.39
57894;BME280;43710;47.460;19.034;2023-02-28T15:26:36;101566.97;;;9.10;54.89
57894;BME280;43710;47.460;19.034;2023-02-28T15:29:46;101575.56;;;9.12;64.29
57894;BME280;43710;47.460;19.034;2023-02-28T15:36:18;101564.22;;;9.22;56.91
57894;BME280;43710;47.460;19.034;2023-02-28T15:39:27;101560.00;;;9.26;58.74
57894;BME280;43710;47.460;19.034;2023-02-28T15:42:29;101558.13;;;9.27;56.77
57894;BME280;43710;47.460;19.034;2023-02-28T15:45:38;101560.81;;;9.10;62.25
57894;BME280;43710;47.460;19.034;2023-02-28T15:48:50;101566.47;;;9.13;52.78
57894;BME280;43710;47.460;19.034;2023-02-28T15:51:56;101557.56;;;9.08;49.62
57894;BME280;43710;47.460;19.034;2023-02-28T15:54:59;101553.84;;;9.09;62.72
57894;BME280;43710;47.460;19.034;2023-02-28T15:58:11;101559.84;;;9.16;50.08
57894;BME280;43710;47.460;19.034;2023-02-28T16:01:25;101556.63;;;9.14;60.74
57894;BME280;43710;47.460;19.034;2023-02-28T16:04:28;101553.19;;;9.18;50.79
57894;BME280;43710;47.460;19.034;2023-02-28T16:07:38;101557.97;;;9.16;62.77
57894;BME280;43710;47.460;19.034;2023-02-28T16:10:41;101567.50;;;8.96;58.94
57894;BME280;43710;47.460;19.034;2023-02-28T16:13:43;101567.31;;;8.85;60.54
57894;BME280;43710;47.460;19.034;2023-02-28T16:16:48;101572.69;;;8.85;58.22
57894;BME280;43710;47.460;19.034;2023-02-28T16:19:51;101574.00;;;9.00;54.96
57894;BME280;43710;47.460;19.034;2023-02-28T16:22:54;101577.53;;;8.88;55.49
57894;BME280;43710;47.460;19.034;2023-02-28T16:25:56;101577.28;;;8.90;56.80
57894;BME280;43710;47.460;19.034;2023-02-28T16:28:58;101579.28;;;8.94;66.55
57894;BME280;43710;47.460;19.034;2023-02-28T16:32:04;101583.16;;;9.04;65.85
57894;BME280;43710;47.460;19.034;2023-02-28T16:35:10;101583.13;;;8.87;55.96
57894;BME280;43710;47.460;19.034;2023-02-28T16:38:12;101580.66;;;8.57;51.28
57894;BME280;43710;47.460;19.034;2023-02-28T16:41:18;101584.62;;;8.54;70.58
